Time;durP1;ratioP1;P1;durP2;ratioP2;P2;SDS_P1;SDS_P2;PMS_P1;PMS_P2;Temp;Humidity;BMP_temperature;BMP_pressure;BME280_temperature;BME280_humidity;BME280_pressure;Samples;Min_cycle;Max_cycle;Signal;HPM_P1;HPM_P2
2022/09/03 00:01:17;;;;;;;0.80;0.20;;;18.90;47.60;;;;;;5032856;28;20489;-77
2022/09/03 00:04:35;;;;;;;0.50;0.20;;;18.80;47.60;;;;;;5034256;28;20069;-77
2022/09/03 00:07:12;;;;;;;0.70;0.20;;;18.80;47.70;;;;;;4993757;28;20041;-77
2022/09/03 00:09:50;;;;;;;1.38;0.20;;;18.70;47.80;;;;;;5046263;28;20041;-77
2022/09/03 00:12:31;;;;;;;0.50;0.30;;;18.70;47.80;;;;;;5040424;28;20052;-77
2022/09/03 00:15:11;;;;;;;0.40;0.20;;;18.70;47.90;;;;;;5045119;28;20408;-77
2022/09/03 00:17:50;;;;;;;0.63;0.20;;;18.60;47.90;;;;;;5027340;28;20057;-77
2022/09/03 00:20:27;;;;;;;0.60;0.20;;;18.60;48.00;;;;;;5033218;28;20046;-77
2022/09/03 00:22:59;;;;;;;0.60;0.30;;;18.60;48.10;;;;;;5047419;28;20037;-77
2022/09/03 00:25:43;;;;;;;0.40;0.10;;;18.50;48.80;;;;;;5046938;28;20133;-77
2022/09/03 00:28:17;;;;;;;0.70;0.30;;;18.50;48.20;;;;;;5032803;28;20088;-77
2022/09/03 00:30:52;;;;;;;0.68;0.30;;;18.50;48.30;;;;;;5024218;28;20057;-77
2022/09/03 00:33:24;;;;;;;0.30;0.20;;;18.50;48.40;;;;;;5052501;28;20048;-77
2022/09/03 00:36:01;;;;;;;1.05;0.30;;;18.50;48.50;;;;;;5052958;28;20405;-77
2022/09/03 00:38:30;;;;;;;0.85;0.20;;;18.40;48.50;;;;;;5045372;28;20041;-77
2022/09/03 00:41:05;;;;;;;0.55;0.20;;;18.40;48.60;;;;;;5036769;28;20049;-77
2022/09/03 00:43:51;;;;;;;0.35;0.15;;;18.40;48.60;;;;;;5032623;28;20037;-77
2022/09/03 00:46:56;;;;;;;1.00;0.20;;;18.30;48.60;;;;;;5040911;28;20045;-78
2022/09/03 00:49:39;;;;;;;1.30;0.20;;;18.30;48.70;;;;;;5028229;28;20061;-77
2022/09/03 00:52:20;;;;;;;0.60;0.20;;;18.30;48.90;;;;;;5021297;28;20499;-77
2022/09/03 00:55:30;;;;;;;0.47;0.20;;;18.20;48.80;;;;;;5047024;28;20041;-77
2022/09/03 00:58:25;;;;;;;1.75;0.10;;;18.20;48.90;;;;;;4961330;28;20043;-77
2022/09/03 01:00:52;;;;;;;0.85;0.20;;;18.20;49.10;;;;;;4957554;28;20043;-78
2022/09/03 01:03:50;;;;;;;0.65;0.20;;;18.20;49.10;;;;;;5023515;28;20076;-77
2022/09/03 01:06:23;;;;;;;0.22;0.17;;;18.10;49.80;;;;;;5043563;28;20045;-78
2022/09/03 01:09:08;;;;;;;0.80;0.20;;;18.10;49.20;;;;;;5029008;28;20111;-78
2022/09/03 01:11:58;;;;;;;0.70;0.20;;;18.10;49.30;;;;;;5026389;28;20091;-78
2022/09/03 01:14:45;;;;;;;0.50;0.20;;;18.10;49.30;;;;;;5032273;28;20080;-78
2022/09/03 01:17:17;;;;;;;0.68;0.28;;;18.00;50.00;;;;;;5043308;28;20466;-78
2022/09/03 01:20:12;;;;;;;0.20;0.10;;;18.00;49.50;;;;;;5034867;28;20617;-77
2022/09/03 01:22:43;;;;;;;1.13;0.20;;;18.00;49.50;;;;;;5024973;28;20505;-78
2022/09/03 01:25:30;;;;;;;0.50;0.30;;;18.00;49.70;;;;;;5031191;28;20060;-78
2022/09/03 01:28:01;;;;;;;0.68;0.20;;;17.90;49.70;;;;;;5037350;28;20073;-78
2022/09/03 01:30:37;;;;;;;3.03;0.45;;;17.90;49.80;;;;;;5043894;28;20053;-78
2022/09/03 01:33:30;;;;;;;1.33;0.20;;;17.90;49.80;;;;;;5036395;28;20557;-78
2022/09/03 01:36:16;;;;;;;;;;;17.90;49.90;;;;;;5050692;28;20068;-78
2022/09/03 01:39:05;;;;;;;0.47;0.10;;;17.80;49.90;;;;;;5031884;28;19984;-78
2022/09/03 01:42:14;;;;;;;0.55;0.20;;;17.80;49.90;;;;;;5018308;28;20065;-78
2022/09/03 01:44:56;;;;;;;0.80;0.20;;;17.80;50.00;;;;;;5030564;28;20091;-78
2022/09/03 01:47:53;;;;;;;1.27;0.20;;;17.70;50.10;;;;;;5031503;28;20041;-78
2022/09/03 01:50:56;;;;;;;0.82;0.20;;;17.70;50.10;;;;;;5038718;28;20060;-78
2022/09/03 01:53:42;;;;;;;0.90;0.30;;;17.70;50.10;;;;;;5035523;28;20052;-78
2022/09/03 01:56:46;;;;;;;0.45;0.20;;;17.70;50.30;;;;;;5041390;28;20417;-78
2022/09/03 01:59:27;;;;;;;2.22;0.20;;;17.60;50.20;;;;;;5032529;28;20247;-78
2022/09/03 02:02:21;;;;;;;0.68;0.13;;;17.60;50.40;;;;;;5036098;28;20045;-78
2022/09/03 02:04:58;;;;;;;1.25;0.20;;;17.60;50.50;;;;;;5036683;28;20070;-78
2022/09/03 02:07:32;;;;;;;0.55;0.30;;;17.50;50.50;;;;;;5041002;28;20056;-78
2022/09/03 02:10:05;;;;;;;1.38;0.20;;;17.50;50.60;;;;;;5038284;28;20133;-78
2022/09/03 02:12:35;;;;;;;1.25;0.35;;;17.50;50.70;;;;;;5035874;28;20059;-77
2022/09/03 02:15:11;;;;;;;0.57;0.25;;;17.50;50.70;;;;;;5039084;28;20409;-78
2022/09/03 02:17:41;;;;;;;0.75;0.20;;;17.50;50.80;;;;;;5033963;28;20045;-78
2022/09/03 02:20:12;;;;;;;2.28;0.28;;;17.50;50.90;;;;;;5038322;28;20119;-79
2022/09/03 02:22:40;;;;;;;1.10;0.20;;;17.40;50.80;;;;;;5050775;28;20041;-79
2022/09/03 02:25:09;;;;;;;0.68;0.30;;;17.40;50.90;;;;;;5028603;28;20084;-79
2022/09/03 02:27:38;;;;;;;0.95;0.20;;;17.40;51.00;;;;;;5024077;28;20572;-79
2022/09/03 02:30:06;;;;;;;1.02;0.28;;;17.40;51.00;;;;;;5019320;28;20558;-79
2022/09/03 02:32:33;;;;;;;0.55;0.20;;;17.30;51.00;;;;;;5039546;28;20899;-80
2022/09/03 02:35:00;;;;;;;1.08;0.30;;;17.40;51.10;;;;;;5045694;28;20555;-79
2022/09/03 02:37:27;;;;;;;2.80;0.30;;;17.30;51.10;;;;;;5024319;28;20136;-79
2022/09/03 02:39:54;;;;;;;0.43;0.17;;;17.30;51.20;;;;;;5034169;28;20041;-79
2022/09/03 02:42:22;;;;;;;1.00;0.20;;;17.30;51.30;;;;;;5022524;28;20474;-79
2022/09/03 02:44:58;;;;;;;0.65;0.20;;;17.20;51.30;;;;;;5025235;28;20099;-79
2022/09/03 02:47:30;;;;;;;2.53;0.50;;;17.20;51.30;;;;;;5030585;28;20046;-79
2022/09/03 02:49:57;;;;;;;;;;;17.20;51.40;;;;;;5041982;28;20127;-79
2022/09/03 02:52:24;;;;;;;1.77;0.22;;;17.10;51.40;;;;;;5033962;28;19928;-79
2022/09/03 02:54:51;;;;;;;1.10;0.30;;;17.10;51.40;;;;;;5033596;28;20049;-79
2022/09/03 02:57:18;;;;;;;0.98;0.20;;;17.10;51.50;;;;;;5020631;28;20461;-80
2022/09/03 02:59:54;;;;;;;0.43;0.20;;;17.10;51.60;;;;;;5022973;28;20049;-79
2022/09/03 03:02:21;;;;;;;0.95;0.20;;;17.10;51.60;;;;;;5017389;28;20042;-79
2022/09/03 03:04:48;;;;;;;1.50;0.32;;;17.00;51.60;;;;;;5002397;28;20124;-79
2022/09/03 03:07:17;;;;;;;0.45;0.20;;;17.00;51.70;;;;;;5031790;28;20041;-79
2022/09/03 03:09:46;;;;;;;0.35;0.20;;;17.00;51.70;;;;;;5005224;28;20053;-79
2022/09/03 03:12:16;;;;;;;0.85;0.20;;;17.00;51.80;;;;;;5003076;28;20065;-79
2022/09/03 03:14:44;;;;;;;0.75;0.20;;;17.00;51.90;;;;;;5019191;28;20493;-80
2022/09/03 03:17:11;;;;;;;0.60;0.30;;;17.00;51.90;;;;;;5020750;28;20140;-80
2022/09/03 03:19:38;;;;;;;0.93;0.20;;;17.00;51.90;;;;;;5002396;28;20041;-80
2022/09/03 03:22:05;;;;;;;0.22;0.10;;;17.00;52.00;;;;;;5041565;28;20128;-79
2022/09/03 03:24:32;;;;;;;0.95;0.30;;;16.90;52.00;;;;;;4997359;28;20822;-80
2022/09/03 03:26:59;;;;;;;0.80;0.20;;;16.90;52.10;;;;;;5021382;28;20041;-80
2022/09/03 03:29:26;;;;;;;0.60;0.20;;;16.90;52.10;;;;;;5050378;28;20139;-80
2022/09/03 03:31:53;;;;;;;0.93;0.20;;;16.90;52.20;;;;;;5017415;28;20033;-79
2022/09/03 03:34:20;;;;;;;0.95;0.20;;;16.80;52.20;;;;;;4989475;28;20049;-80
2022/09/03 03:36:47;;;;;;;0.52;0.20;;;16.80;52.20;;;;;;5031115;28;20046;-80
2022/09/03 03:39:14;;;;;;;1.05;0.20;;;16.80;52.30;;;;;;5039484;28;20048;-80
2022/09/03 03:41:42;;;;;;;0.47;0.20;;;16.80;52.30;;;;;;5014922;28;20505;-80
2022/09/03 03:44:09;;;;;;;0.30;0.20;;;16.70;52.30;;;;;;5036002;28;20433;-80
2022/09/03 03:46:38;;;;;;;0.80;0.30;;;16.80;53.00;;;;;;5044113;28;20053;-80
2022/09/03 03:49:06;;;;;;;0.93;0.30;;;16.70;52.40;;;;;;5034299;28;20049;-80
2022/09/03 03:51:34;;;;;;;0.63;0.30;;;16.70;52.40;;;;;;5029919;28;20077;-80
2022/09/03 03:54:02;;;;;;;0.73;0.20;;;16.70;52.50;;;;;;5001303;28;20046;-80
2022/09/03 03:56:32;;;;;;;2.20;0.30;;;16.70;52.50;;;;;;5046158;28;20049;-80
2022/09/03 03:59:00;;;;;;;0.55;0.20;;;16.70;52.60;;;;;;5029905;28;20041;-80
2022/09/03 04:01:27;;;;;;;1.45;0.20;;;16.70;52.60;;;;;;5031861;28;20543;-80
2022/09/03 04:03:55;;;;;;;3.60;0.35;;;16.70;52.70;;;;;;5047543;28;20443;-80
2022/09/03 04:06:23;;;;;;;1.13;0.20;;;16.70;52.60;;;;;;5037471;28;20103;-79
2022/09/03 04:08:50;;;;;;;0.60;0.20;;;16.70;52.70;;;;;;5042882;28;20396;-79
2022/09/03 04:11:19;;;;;;;0.57;0.20;;;16.70;52.80;;;;;;5053407;28;20049;-80
2022/09/03 04:13:49;;;;;;;0.38;0.20;;;16.60;52.80;;;;;;5059904;28;20041;-80
2022/09/03 04:16:19;;;;;;;0.90;0.30;;;16.60;52.80;;;;;;5044210;28;20065;-80
2022/09/03 04:18:49;;;;;;;0.80;0.20;;;16.60;53.50;;;;;;5051163;28;20064;-80
2022/09/03 04:21:22;;;;;;;0.60;0.20;;;16.50;52.90;;;;;;5048609;28;20079;-79
2022/09/03 04:23:50;;;;;;;0.80;0.20;;;16.50;52.90;;;;;;5045636;28;20037;-80
2022/09/03 04:26:23;;;;;;;1.10;0.25;;;16.50;53.00;;;;;;5033481;28;20068;-80
2022/09/03 04:28:50;;;;;;;0.77;0.30;;;16.50;53.10;;;;;;5042112;28;20103;-80
2022/09/03 04:31:18;;;;;;;0.80;0.20;;;16.40;53.10;;;;;;5017312;28;20456;-80
2022/09/03 04:33:46;;;;;;;0.10;0.10;;;16.40;53.20;;;;;;5038576;28;20068;-80
2022/09/03 04:36:19;;;;;;;1.95;0.40;;;16.40;53.30;;;;;;5043188;28;20041;-79
2022/09/03 04:38:49;;;;;;;1.45;0.20;;;16.40;53.30;;;;;;5029986;28;20484;-80
2022/09/03 04:41:19;;;;;;;0.93;0.28;;;16.30;53.40;;;;;;5040457;28;20642;-79
2022/09/03 04:43:47;;;;;;;1.55;0.20;;;16.30;53.30;;;;;;5037787;28;20060;-80
2022/09/03 04:46:19;;;;;;;0.50;0.20;;;16.30;53.40;;;;;;5040341;28;20063;-80
2022/09/03 04:48:51;;;;;;;1.10;0.20;;;16.30;53.40;;;;;;5000253;28;20037;-80
2022/09/03 04:51:21;;;;;;;0.88;0.22;;;16.30;53.50;;;;;;5034291;28;20110;-80
2022/09/03 04:53:53;;;;;;;0.60;0.10;;;16.20;53.50;;;;;;5046371;28;20049;-80
2022/09/03 04:56:23;;;;;;;0.63;0.20;;;16.20;53.50;;;;;;5040947;28;20064;-80
2022/09/03 04:59:02;;;;;;;0.80;0.22;;;16.20;53.60;;;;;;5027701;28;20156;-79
2022/09/03 05:01:31;;;;;;;2.53;0.20;;;16.20;53.60;;;;;;5037748;28;20096;-80
2022/09/03 05:04:00;;;;;;;0.50;0.30;;;16.20;53.70;;;;;;5002284;28;20095;-80
2022/09/03 05:06:28;;;;;;;1.08;0.20;;;16.20;53.60;;;;;;5025267;28;20178;-80
2022/09/03 05:08:56;;;;;;;0.65;0.20;;;16.20;53.70;;;;;;5038157;28;20067;-80
2022/09/03 05:11:24;;;;;;;0.40;0.20;;;16.20;53.70;;;;;;5028215;28;20048;-80
2022/09/03 05:13:54;;;;;;;0.30;0.15;;;16.20;53.80;;;;;;5036571;28;20029;-80
2022/09/03 05:16:22;;;;;;;0.52;0.10;;;16.20;53.70;;;;;;5034421;28;20458;-80
2022/09/03 05:18:54;;;;;;;0.60;0.20;;;16.20;53.80;;;;;;5031766;28;20046;-80
2022/09/03 05:21:22;;;;;;;0.50;0.20;;;16.20;53.80;;;;;;5014161;28;20051;-80
2022/09/03 05:23:51;;;;;;;0.63;0.20;;;16.10;53.80;;;;;;5035274;28;20375;-80
2022/09/03 05:26:25;;;;;;;0.47;0.10;;;16.10;53.80;;;;;;5040880;28;20049;-80
2022/09/03 05:28:54;;;;;;;1.73;0.20;;;16.20;53.90;;;;;;5038443;28;20056;-80
2022/09/03 05:31:25;;;;;;;0.52;0.20;;;16.20;53.90;;;;;;5031414;28;20497;-80
2022/09/03 05:33:57;;;;;;;0.85;0.20;;;16.10;53.80;;;;;;5031702;28;20038;-81
2022/09/03 05:36:28;;;;;;;0.30;0.20;;;16.20;53.80;;;;;;5032397;28;20414;-80
2022/09/03 05:38:58;;;;;;;1.27;0.30;;;16.20;53.80;;;;;;5050812;28;20052;-80
2022/09/03 05:41:27;;;;;;;0.40;0.10;;;16.20;53.80;;;;;;5013451;28;20041;-80
2022/09/03 05:43:57;;;;;;;0.52;0.25;;;16.30;53.80;;;;;;5025442;28;20063;-80
2022/09/03 05:46:33;;;;;;;1.20;0.15;;;16.30;53.80;;;;;;5036222;28;20038;-81
2022/09/03 05:49:01;;;;;;;0.43;0.20;;;16.30;53.70;;;;;;5031849;28;20455;-81
2022/09/03 05:51:29;;;;;;;1.08;0.25;;;16.30;53.60;;;;;;5040052;28;20100;-80
2022/09/03 05:53:57;;;;;;;0.30;0.15;;;16.40;53.60;;;;;;5040716;28;20429;-81
2022/09/03 05:56:27;;;;;;;0.30;0.20;;;16.40;53.60;;;;;;5044752;28;20049;-80
2022/09/03 05:58:59;;;;;;;0.80;0.10;;;16.50;53.60;;;;;;5048290;28;20449;-80
2022/09/03 06:01:32;;;;;;;0.40;0.20;;;16.50;53.60;;;;;;5037656;28;20469;-81
2022/09/03 06:04:11;;;;;;;0.47;0.20;;;16.60;53.50;;;;;;5040679;28;20072;-80
2022/09/03 06:06:40;;;;;;;0.70;0.20;;;16.60;53.50;;;;;;5035517;28;20056;-81
2022/09/03 06:09:19;;;;;;;0.43;0.20;;;16.70;53.50;;;;;;5045037;28;20496;-80
2022/09/03 06:11:48;;;;;;;0.70;0.30;;;16.70;53.40;;;;;;5030714;28;20291;-81
2022/09/03 06:14:16;;;;;;;0.47;0.20;;;16.70;53.30;;;;;;5037045;28;20469;-80
2022/09/03 06:16:48;;;;;;;1.45;0.20;;;16.80;53.30;;;;;;5021227;28;20049;-81
2022/09/03 06:19:16;;;;;;;0.43;0.20;;;16.90;53.30;;;;;;5021988;28;20390;-81
2022/09/03 06:21:44;;;;;;;1.15;0.20;;;16.90;53.20;;;;;;5037192;28;20515;-80
2022/09/03 06:24:22;;;;;;;0.40;0.30;;;17.00;53.20;;;;;;5038429;28;20057;-81
2022/09/03 06:26:55;;;;;;;0.57;0.30;;;17.10;53.10;;;;;;5040562;28;20379;-81
2022/09/03 06:29:22;;;;;;;0.93;0.30;;;17.10;53.00;;;;;;5021199;28;20401;-80
2022/09/03 06:31:50;;;;;;;1.85;0.20;;;17.20;53.00;;;;;;5019377;28;20041;-80
2022/09/03 06:34:17;;;;;;;0.55;0.20;;;17.20;52.90;;;;;;5044373;28;20378;-80
2022/09/03 06:36:45;;;;;;;0.70;0.20;;;17.30;52.90;;;;;;5008118;28;20045;-80
2022/09/03 06:39:12;;;;;;;0.55;0.20;;;17.40;52.90;;;;;;5024372;28;20490;-80
2022/09/03 06:41:39;;;;;;;0.45;0.20;;;17.40;52.80;;;;;;5043940;28;20057;-80
2022/09/03 06:44:10;;;;;;;0.38;0.20;;;17.50;52.80;;;;;;5021667;28;20546;-81
2022/09/03 06:46:41;;;;;;;0.93;0.30;;;17.60;52.80;;;;;;5039577;28;20041;-80
2022/09/03 06:49:09;;;;;;;1.10;0.30;;;17.60;52.70;;;;;;5038467;28;20288;-80
2022/09/03 06:51:37;;;;;;;1.20;0.30;;;17.70;53.30;;;;;;5030471;28;20103;-80
2022/09/03 06:54:09;;;;;;;0.75;0.30;;;17.70;52.60;;;;;;5031118;28;20045;-80
2022/09/03 06:56:38;;;;;;;0.82;0.30;;;17.80;52.50;;;;;;5038027;28;20064;-80
2022/09/03 06:59:14;;;;;;;1.52;0.20;;;17.90;52.60;;;;;;5035545;28;20041;-80
2022/09/03 07:01:43;;;;;;;1.27;0.20;;;17.90;52.50;;;;;;5031277;28;20045;-80
2022/09/03 07:04:15;;;;;;;0.40;0.22;;;18.00;52.50;;;;;;5041278;28;20046;-80
2022/09/03 07:06:46;;;;;;;0.77;0.30;;;18.00;52.40;;;;;;5049789;28;20037;-80
2022/09/03 07:09:16;;;;;;;1.92;0.30;;;18.10;52.30;;;;;;5023113;28;20041;-80
2022/09/03 07:11:48;;;;;;;0.98;0.20;;;18.20;52.40;;;;;;5017241;28;20140;-81
2022/09/03 07:14:17;;;;;;;0.55;0.22;;;18.20;52.30;;;;;;5029557;28;20045;-80
2022/09/03 07:16:45;;;;;;;2.08;0.40;;;18.30;52.30;;;;;;5033797;28;20517;-81
2022/09/03 07:19:13;;;;;;;0.90;0.20;;;18.40;52.20;;;;;;5038749;28;20053;-80
2022/09/03 07:21:41;;;;;;;0.95;0.20;;;18.40;52.20;;;;;;5038279;28;20033;-82
2022/09/03 07:24:15;;;;;;;0.95;0.30;;;18.50;52.20;;;;;;5050415;28;20490;-81
2022/09/03 07:26:47;;;;;;;0.88;0.30;;;18.60;52.10;;;;;;5028631;28;20045;-79
2022/09/03 07:29:18;;;;;;;0.70;0.30;;;18.60;52.10;;;;;;5010224;28;20576;-81
2022/09/03 07:31:49;;;;;;;0.10;0.10;;;18.70;52.00;;;;;;5031246;28;20533;-81
2022/09/03 07:34:18;;;;;;;0.73;0.20;;;18.80;52.00;;;;;;5030578;28;20513;-81
2022/09/03 07:36:49;;;;;;;0.52;0.20;;;18.90;51.90;;;;;;5036024;28;20397;-80
2022/09/03 07:39:20;;;;;;;0.93;0.28;;;19.00;51.80;;;;;;5043679;28;20551;-81
2022/09/03 07:41:49;;;;;;;0.35;0.22;;;19.10;51.70;;;;;;5032738;28;20469;-80
2022/09/03 07:44:19;;;;;;;0.30;0.20;;;19.20;51.60;;;;;;5032508;28;20044;-83
2022/09/03 07:46:46;;;;;;;0.45;0.20;;;19.20;51.50;;;;;;5056400;28;20765;-82
2022/09/03 07:49:14;;;;;;;0.60;0.30;;;19.30;51.40;;;;;;5057855;28;20067;-82
2022/09/03 07:51:41;;;;;;;1.02;0.20;;;19.40;51.40;;;;;;5051672;28;20053;-80
2022/09/03 07:54:09;;;;;;;0.57;0.15;;;19.50;51.30;;;;;;5020848;28;20052;-79
2022/09/03 07:56:39;;;;;;;0.55;0.20;;;19.60;51.20;;;;;;5067201;28;20143;-80
2022/09/03 07:59:07;;;;;;;0.57;0.20;;;19.70;51.10;;;;;;5055066;28;20040;-82
2022/09/03 08:01:37;;;;;;;3.25;0.30;;;19.70;50.90;;;;;;5073357;28;20049;-82
2022/09/03 08:04:09;;;;;;;0.90;0.20;;;19.80;50.90;;;;;;5043034;28;20123;-79
2022/09/03 08:06:38;;;;;;;0.40;0.20;;;20.00;50.90;;;;;;5071226;28;20043;-85
2022/09/03 08:09:28;;;;;;;0.93;0.30;;;20.00;50.70;;;;;;5055113;28;20045;-83
2022/09/03 08:11:55;;;;;;;0.82;0.25;;;20.10;50.60;;;;;;5031026;28;20049;-82
2022/09/03 08:14:25;;;;;;;0.40;0.13;;;20.20;50.50;;;;;;5053281;28;20091;-82
2022/09/03 08:16:52;;;;;;;0.32;0.13;;;20.30;50.40;;;;;;5055386;28;20044;-82
2022/09/03 08:19:22;;;;;;;0.40;0.20;;;20.40;50.30;;;;;;5036220;28;20041;-81
2022/09/03 08:21:59;;;;;;;1.33;0.20;;;20.50;50.20;;;;;;5053161;28;20044;-80
2022/09/03 08:24:33;;;;;;;1.23;0.35;;;20.60;50.10;;;;;;5049548;28;20539;-80
2022/09/03 08:27:00;;;;;;;0.85;0.30;;;20.70;50.00;;;;;;5072337;28;20459;-81
2022/09/03 08:29:27;;;;;;;0.35;0.20;;;20.80;49.80;;;;;;5035465;28;20041;-83
2022/09/03 08:31:54;;;;;;;1.02;0.20;;;20.90;49.70;;;;;;5040173;28;20564;-81
2022/09/03 08:34:22;;;;;;;0.40;0.20;;;21.00;49.60;;;;;;5051878;28;20117;-81
2022/09/03 08:36:53;;;;;;;0.20;0.20;;;21.10;49.50;;;;;;5040162;28;20044;-82
2022/09/03 08:39:20;;;;;;;0.68;0.17;;;21.20;49.40;;;;;;5050744;28;20120;-83
2022/09/03 08:41:50;;;;;;;0.57;0.20;;;21.20;49.30;;;;;;5018289;28;20132;-77
2022/09/03 08:44:35;;;;;;;0.50;0.20;;;21.30;49.20;;;;;;5035686;28;20045;-80
2022/09/03 08:47:14;;;;;;;0.40;0.10;;;21.30;49.10;;;;;;5017558;28;20328;-80
2022/09/03 08:50:04;;;;;;;0.57;0.20;;;21.50;49.10;;;;;;5033131;28;20045;-80
2022/09/03 08:52:37;;;;;;;0.45;0.20;;;21.50;49.00;;;;;;5034459;28;20402;-79
2022/09/03 08:55:29;;;;;;;0.40;0.20;;;21.60;48.80;;;;;;5041192;28;20051;-79
2022/09/03 08:58:29;;;;;;;0.63;0.20;;;21.70;48.70;;;;;;5028934;28;20466;-80
2022/09/03 09:01:22;;;;;;;0.20;0.10;;;21.80;48.50;;;;;;5038352;28;20038;-80
2022/09/03 09:04:09;;;;;;;0.85;0.30;;;21.80;48.40;;;;;;5020720;28;20535;-79
2022/09/03 09:06:36;;;;;;;0.95;0.20;;;21.90;48.30;;;;;;5041658;28;20045;-79
2022/09/03 09:09:32;;;;;;;0.40;0.20;;;22.00;48.30;;;;;;5041608;28;20040;-79
2022/09/03 09:12:33;;;;;;;0.50;0.20;;;22.10;48.10;;;;;;5018979;28;20104;-76
2022/09/03 09:15:33;;;;;;;0.67;0.20;;;22.20;48.10;;;;;;5022821;28;20077;-78
2022/09/03 09:18:15;;;;;;;0.95;0.30;;;22.30;48.00;;;;;;5044958;28;20045;-77
2022/09/03 09:20:53;;;;;;;0.55;0.20;;;22.40;47.90;;;;;;5033912;28;20045;-77
2022/09/03 09:23:29;;;;;;;1.00;0.20;;;22.40;47.80;;;;;;5055661;28;20042;-80
2022/09/03 09:25:58;;;;;;;0.32;0.20;;;22.40;47.70;;;;;;5024423;28;20050;-80
2022/09/03 09:28:36;;;;;;;1.17;0.10;;;22.50;47.60;;;;;;5044221;28;20057;-79
2022/09/03 09:31:08;;;;;;;1.15;0.20;;;22.60;47.50;;;;;;5042930;28;20080;-78
2022/09/03 09:33:36;;;;;;;0.20;0.10;;;22.60;47.40;;;;;;5040276;28;20079;-79
2022/09/03 09:36:08;;;;;;;0.43;0.10;;;22.70;47.40;;;;;;5029305;28;20052;-80
2022/09/03 09:38:36;;;;;;;;;;;22.80;47.20;;;;;;5046400;28;20045;-80
2022/09/03 09:41:12;;;;;;;1.08;0.20;;;22.80;47.30;;;;;;5038068;28;19999;-78
2022/09/03 09:43:40;;;;;;;0.28;0.10;;;22.90;47.00;;;;;;5062445;28;20057;-78
2022/09/03 09:46:33;;;;;;;0.63;0.10;;;23.00;47.00;;;;;;5067559;28;20046;-78
2022/09/03 09:49:02;;;;;;;0.35;0.10;;;23.10;46.70;;;;;;5055206;28;20454;-79
2022/09/03 09:51:30;;;;;;;1.95;0.20;;;23.10;46.50;;;;;;5007563;28;20393;-79
2022/09/03 09:54:02;;;;;;;3.00;0.20;;;23.20;46.40;;;;;;5040216;28;20053;-79
2022/09/03 09:56:29;;;;;;;1.27;0.20;;;23.30;46.20;;;;;;5056043;28;20040;-80
2022/09/03 09:59:08;;;;;;;0.50;0.10;;;23.40;46.10;;;;;;5021344;28;20040;-80
2022/09/03 10:01:46;;;;;;;0.60;0.20;;;23.50;46.00;;;;;;5060787;28;20056;-79
2022/09/03 10:04:26;;;;;;;1.00;0.20;;;23.60;45.90;;;;;;5067220;28;20091;-80
2022/09/03 10:07:18;;;;;;;1.58;0.30;;;23.70;45.60;;;;;;5064581;28;20154;-77
2022/09/03 10:09:57;;;;;;;0.30;0.20;;;23.80;45.30;;;;;;5077238;28;20114;-77
2022/09/03 10:12:43;;;;;;;0.75;0.30;;;23.90;45.10;;;;;;5053707;28;20033;-77
2022/09/03 10:15:25;;;;;;;1.40;0.20;;;24.00;45.40;;;;;;5068697;28;20048;-77
2022/09/03 10:17:58;;;;;;;1.52;0.20;;;24.20;44.70;;;;;;5045968;28;20056;-77
2022/09/03 10:20:30;;;;;;;0.32;0.10;;;24.30;44.60;;;;;;5065371;28;20101;-76
2022/09/03 10:23:03;;;;;;;0.75;0.20;;;24.30;44.50;;;;;;5065469;28;20504;-77
2022/09/03 10:25:54;;;;;;;0.40;0.13;;;24.20;44.50;;;;;;5046205;28;20056;-77
2022/09/03 10:28:25;;;;;;;0.88;0.20;;;24.40;44.40;;;;;;5063634;28;20500;-76
2022/09/03 10:31:30;;;;;;;1.08;0.10;;;24.40;44.30;;;;;;5055605;28;20045;-77
2022/09/03 10:34:17;;;;;;;2.10;0.30;;;24.90;43.90;;;;;;5065257;28;20051;-77
2022/09/03 10:36:58;;;;;;;0.73;0.20;;;25.40;43.20;;;;;;5056515;28;20101;-77
2022/09/03 10:39:42;;;;;;;0.25;0.20;;;26.00;42.60;;;;;;5071789;28;20070;-78
2022/09/03 10:42:13;;;;;;;0.32;0.13;;;26.30;42.10;;;;;;5070938;28;20496;-77
2022/09/03 10:45:04;;;;;;;1.30;0.43;;;26.60;41.80;;;;;;5071185;28;20492;-77
2022/09/03 10:48:04;;;;;;;1.20;0.20;;;26.40;41.70;;;;;;5041728;28;20119;-77
2022/09/03 10:50:43;;;;;;;0.75;0.10;;;25.80;42.30;;;;;;5038694;28;20048;-77
2022/09/03 10:53:51;;;;;;;0.73;0.20;;;25.30;42.90;;;;;;5055720;28;20155;-79
2022/09/03 10:56:37;;;;;;;0.52;0.20;;;25.30;43.00;;;;;;5052121;28;20144;-77
2022/09/03 10:59:32;;;;;;;0.52;0.20;;;25.30;43.00;;;;;;5050011;28;20068;-82
2022/09/03 11:02:14;;;;;;;0.60;0.20;;;25.10;43.20;;;;;;5064349;28;20098;-79
2022/09/03 11:04:59;;;;;;;0.30;0.10;;;25.10;43.30;;;;;;5052058;28;20036;-78
2022/09/03 11:07:34;;;;;;;0.20;0.10;;;25.00;43.30;;;;;;5060428;28;20496;-80
2022/09/03 11:10:28;;;;;;;0.80;0.30;;;24.90;43.40;;;;;;5053154;28;20485;-76
2022/09/03 11:13:06;;;;;;;0.60;0.20;;;24.90;43.50;;;;;;5052859;28;20094;-81
2022/09/03 11:15:53;;;;;;;0.70;0.20;;;24.90;43.60;;;;;;5089978;28;20049;-82
2022/09/03 11:18:20;;;;;;;0.55;0.20;;;24.90;43.50;;;;;;5057576;28;20510;-79
2022/09/03 11:20:53;;;;;;;1.30;0.20;;;24.90;43.50;;;;;;5060861;28;20044;-79
2022/09/03 11:23:25;;;;;;;1.75;0.10;;;24.90;43.50;;;;;;5062844;28;20048;-80
2022/09/03 11:25:57;;;;;;;0.28;0.10;;;25.00;43.40;;;;;;5065358;28;20561;-79
2022/09/03 11:28:44;;;;;;;1.08;0.20;;;25.30;43.10;;;;;;5057352;28;20043;-80
2022/09/03 11:31:56;;;;;;;0.55;0.17;;;26.00;42.50;;;;;;5054931;28;20040;-77
2022/09/03 11:34:43;;;;;;;0.30;0.10;;;27.20;41.30;;;;;;5058431;28;20070;-84
2022/09/03 11:37:33;;;;;;;0.60;0.10;;;28.10;40.40;;;;;;5047209;28;20048;-82
2022/09/03 11:40:17;;;;;;;0.22;0.13;;;28.70;39.70;;;;;;5039053;28;21278;-77
2022/09/03 11:42:49;;;;;;;1.88;0.30;;;29.10;39.40;;;;;;5047129;28;20063;-83
2022/09/03 11:45:19;;;;;;;0.43;0.20;;;29.30;39.10;;;;;;5014062;28;20842;-83
2022/09/03 11:47:47;;;;;;;0.38;0.10;;;29.50;39.00;;;;;;5059867;28;20041;-79
2022/09/03 11:50:30;;;;;;;0.57;0.20;;;29.80;38.90;;;;;;5068754;28;20032;-81
2022/09/03 11:53:08;;;;;;;0.32;0.10;;;30.10;38.50;;;;;;5061121;28;20044;-80
2022/09/03 11:55:59;;;;;;;0.32;0.10;;;30.20;38.50;;;;;;5061878;28;20037;-80
2022/09/03 11:58:42;;;;;;;0.57;0.17;;;30.40;38.40;;;;;;5077514;28;20043;-78
2022/09/03 12:01:12;;;;;;;0.32;0.20;;;30.60;38.40;;;;;;5079646;28;20451;-79
2022/09/03 12:04:02;;;;;;;0.88;0.20;;;30.70;38.30;;;;;;5088711;28;20045;-80
2022/09/03 12:07:06;;;;;;;0.47;0.20;;;30.90;38.20;;;;;;5063939;28;20076;-79
2022/09/03 12:10:07;;;;;;;0.75;0.20;;;30.90;38.10;;;;;;5067772;28;20063;-78
2022/09/03 12:12:40;;;;;;;0.90;0.20;;;30.00;38.50;;;;;;5080042;28;20041;-80
2022/09/03 12:15:44;;;;;;;0.47;0.20;;;28.90;39.40;;;;;;5074641;28;20275;-80
2022/09/03 12:18:34;;;;;;;0.40;0.20;;;28.20;40.00;;;;;;5048479;28;20177;-78
2022/09/03 12:21:04;;;;;;;0.20;0.15;;;27.60;40.60;;;;;;5062837;28;20140;-78
2022/09/03 12:23:33;;;;;;;0.43;0.20;;;27.20;41.00;;;;;;5077273;28;20043;-78
2022/09/03 12:26:04;;;;;;;0.50;0.10;;;26.80;41.10;;;;;;5062976;28;20477;-78
2022/09/03 12:28:37;;;;;;;0.50;0.28;;;26.60;41.30;;;;;;5050621;28;20040;-79
2022/09/03 12:31:23;;;;;;;0.47;0.20;;;26.40;41.30;;;;;;5066267;28;20535;-77
2022/09/03 12:33:57;;;;;;;0.65;0.20;;;26.20;41.40;;;;;;5066490;28;20044;-77
2022/09/03 12:36:35;;;;;;;0.80;0.20;;;26.20;41.50;;;;;;5083611;28;20036;-77
2022/09/03 12:39:23;;;;;;;0.70;0.22;;;26.00;41.50;;;;;;5080722;28;20105;-77
2022/09/03 12:42:19;;;;;;;1.75;0.20;;;26.00;41.40;;;;;;5054799;28;20052;-76
2022/09/03 12:44:49;;;;;;;0.40;0.20;;;25.90;41.60;;;;;;5057378;28;20633;-76
2022/09/03 12:47:19;;;;;;;0.30;0.20;;;25.90;41.60;;;;;;5050818;28;20098;-76
2022/09/03 12:50:21;;;;;;;0.35;0.20;;;25.80;41.50;;;;;;5053246;28;20036;-76
2022/09/03 12:52:55;;;;;;;1.85;0.32;;;25.80;41.50;;;;;;5072432;28;20106;-76
2022/09/03 12:55:25;;;;;;;0.70;0.38;;;25.80;41.60;;;;;;5048777;28;20048;-78
2022/09/03 12:58:09;;;;;;;1.50;0.20;;;25.70;41.60;;;;;;5066486;28;20148;-76
2022/09/03 13:01:09;;;;;;;0.40;0.20;;;25.70;41.60;;;;;;5077226;28;20066;-76
2022/09/03 13:03:56;;;;;;;1.05;0.30;;;25.70;41.70;;;;;;5040631;28;20146;-76
2022/09/03 13:06:45;;;;;;;0.55;0.20;;;25.60;41.70;;;;;;5065273;28;20492;-76
2022/09/03 13:09:13;;;;;;;1.00;0.30;;;25.60;41.70;;;;;;5058077;28;20063;-76
2022/09/03 13:11:43;;;;;;;1.17;0.30;;;25.70;41.90;;;;;;5050340;28;20052;-77
2022/09/03 13:14:16;;;;;;;0.57;0.22;;;25.70;41.90;;;;;;5068080;28;20594;-76
2022/09/03 13:16:43;;;;;;;0.52;0.38;;;25.70;41.90;;;;;;5056375;28;20090;-83
2022/09/03 13:19:27;;;;;;;0.30;0.20;;;25.80;42.00;;;;;;5039362;28;20044;-79
2022/09/03 13:22:31;;;;;;;0.30;0.13;;;25.80;41.90;;;;;;5063794;28;20044;-79
2022/09/03 13:25:23;;;;;;;0.85;0.28;;;25.80;41.90;;;;;;5055793;28;20044;-81
2022/09/03 13:28:30;;;;;;;1.23;0.20;;;25.80;42.00;;;;;;5054908;28;20078;-77
2022/09/03 13:31:23;;;;;;;0.47;0.20;;;25.80;42.00;;;;;;5045219;28;20057;-77
2022/09/03 13:33:53;;;;;;;;;;;25.90;42.00;;;;;;5048013;28;20089;-78